Holsey, Louisiana
Current Conditions -  °F | °C
As of 7:53 AM on Monday 24 Nov 2014 (Local Time) from KELD Reporting Station
Clear Clear  
Wind Chill: 47°   Ceiling: Unl
Heat Index: 47°   Visibility: 10mi
Dew Point: 38°   Wind: 3mph
Humidity: 71%   Direction: 260°W
Pressure: 29.92"   Gusts: NA
Location:  32.8398°N, 92.8601°W
Report Text: KELD 241353Z AUTO 26003KT 10SM CLR 08/03 A2992 RMK AO2 SLP131 T00830033
Loading
Personal Weather Stations






























Interactive Weather Map New forecast layout! Learn more

10-Day Weather Forecast

Advertisements
Track Severe Weather on mobile